Holy Trinity, AL (36859)

9:16 AM CST on November 28, 2014 (GMT -0600)
Coolbranch North of Lakepoint | Change Station
CLOSE
Current Station
Personal Weather Station
Location: Eufaula, AL
Elevation: 236 ft
Nearby Weather Stations

Elev 236 ft 32.01 °N, 85.09 °W | Updated 10 seconds ago

Clear
Clear
40.3 °F
Feels Like 40 °F
N
1.0
Wind Variable Wind from NNW
Gusts 5.0 mph

Today
High -- | Low -- °F
--% Chance of Precip.
Yesterday
High -- | Low -- °F
Precip. -- in
6:21 AM 4:35 PM
Waxing Crescent, 41% visible
Pressure 30.46 in
Visibility 10.0 miles
Clouds Clear
Windchill 40 °F
Dew Point 30 °F
Humidity 66%
Rainfall 0.00 in
Snow Depth Not available.
UV 2 out of 12
Pollen .30 out of 12
Air Quality Not available.
Flu Activity Not available.
METAR KLSF 281458Z AUTO 34008KT 10SM CLR 03/M03 A3044 RMK AO2 SLP313 T00331033 52011 $

More Conditions Fewer Conditions

Pressure 30.46 in
Visibility 10.0 miles
Clouds Clear
Windchill 40 °F
Dew Point 30 °F
Humidity 66%
Rainfall 0.00 in
Snow Depth Not available.
UV 2 out of 12
Pollen .30 out of 12
Air Quality Not available.
Flu Activity Not available.
METAR KLSF 281458Z AUTO 34008KT 10SM CLR 03/M03 A3044 RMK AO2 SLP313 T00331033 52011 $

More Conditions Fewer Conditions

10-Day Weather Forecast

Almanac

Astronomy

Nov. 28, 2014 Rise Set
Actual Time
Civil Twilight
Nautical Twilight
Astronomical Twilight
Moon
Length of Visible Light
Length of Day
Tomorrow will be .
, % of the Moon is Illuminated

Today's Extremes

State Highs State Lows

Community

WunderPhotos

Upload Photos

1,774,227 photos uploaded!

WunderBlogs® & News

Nearby

Air Quality

  Air Quality AQ Index Pollutant
Not available.

Snow Depth

Station Depth Elevation

Earthquake Activity

City Distance Mag. Time & Date
Minimum magnitude displayed is 2.5.

Coastal Water Temperatures

Place Temperature

Nearby Weather Stations